Time;durP1;ratioP1;P1;durP2;ratioP2;P2;SDS_P1;SDS_P2;PMS_P1;PMS_P2;Temp;Humidity;BMP_temperature;BMP_pressure;BME280_temperature;BME280_humidity;BME280_pressure;Samples;Min_cycle;Max_cycle;Signal;HPM_P1;HPM_P2
2022/11/02 00:01:45;;;;;;;14.87;7.60;;;;;;;14.53;62.99;95300.53;4900066;29;20389;-82
2022/11/02 00:04:12;;;;;;;10.10;7.67;;;;;;;14.53;63.12;95302.28;4898452;29;20231;-81
2022/11/02 00:06:40;;;;;;;13.17;7.20;;;;;;;14.48;63.36;95299.31;4878781;29;20197;-80
2022/11/02 00:09:07;;;;;;;18.63;8.17;;;;;;;14.50;63.34;95297.44;4878469;29;20224;-81
2022/11/02 00:11:36;;;;;;;13.90;7.40;;;;;;;14.48;63.43;95301.88;4878782;29;20197;-82
2022/11/02 00:14:03;;;;;;;12.73;7.37;;;;;;;14.34;63.30;95282.63;4877522;29;20201;-82
2022/11/02 00:16:31;;;;;;;13.73;7.50;;;;;;;14.45;63.35;95305.56;4877773;29;20228;-81
2022/11/02 00:19:00;;;;;;;17.07;7.90;;;;;;;14.22;63.53;95269.16;4877574;29;20193;-81
2022/11/02 00:21:28;;;;;;;11.00;7.30;;;;;;;14.41;63.55;95298.28;4877994;29;20209;-81
2022/11/02 00:23:58;;;;;;;15.00;8.17;;;;;;;14.40;63.58;95300.03;4877855;29;20217;-82
2022/11/02 00:26:25;;;;;;;10.13;7.20;;;;;;;14.34;63.66;95294.69;4877748;29;20588;-81
2022/11/02 00:28:54;;;;;;;14.17;7.47;;;;;;;14.20;63.63;95273.63;4876147;29;20193;-83
2022/11/02 00:31:21;;;;;;;10.30;7.50;;;;;;;14.36;63.74;95297.91;4877635;29;20585;-82
2022/11/02 00:33:48;;;;;;;12.33;7.67;;;;;;;14.29;63.69;95288.22;4877389;29;20190;-81
2022/11/02 00:36:16;;;;;;;14.40;7.53;;;;;;;14.33;63.77;95299.00;4877277;29;20256;-83
2022/11/02 00:38:42;;;;;;;14.00;7.73;;;;;;;14.31;63.69;95288.06;4877560;29;20644;-81
2022/11/02 00:41:11;;;;;;;14.23;7.43;;;;;;;14.19;63.73;95281.50;4877093;29;20655;-83
2022/11/02 00:43:38;;;;;;;15.40;7.27;;;;;;;14.27;64.03;95300.41;4876777;29;20240;-82
2022/11/02 00:46:06;;;;;;;12.70;6.70;;;;;;;14.26;63.97;95297.97;4877317;29;20196;-82
2022/11/02 00:48:33;;;;;;;12.30;7.43;;;;;;;14.21;64.04;95284.75;4876974;29;20204;-82
2022/11/02 00:51:00;;;;;;;11.00;7.07;;;;;;;14.23;63.92;95290.53;4877202;29;20612;-82
2022/11/02 00:53:27;;;;;;;14.83;7.40;;;;;;;14.23;63.92;95290.53;4877332;29;20197;-82
2022/11/02 00:55:55;;;;;;;19.03;7.77;;;;;;;14.13;64.08;95279.50;4880887;29;20197;-82
2022/11/02 00:58:22;;;;;;;11.40;6.70;;;;;;;14.10;64.10;95272.88;4886513;29;20211;-82
2022/11/02 01:00:49;;;;;;;11.47;7.70;;;;;;;14.17;64.04;95291.94;4861741;29;20204;-82
2022/11/02 01:03:19;;;;;;;13.90;7.23;;;;;;;14.09;64.18;95276.41;4878170;29;20217;-82
2022/11/02 01:05:46;;;;;;;11.57;7.50;;;;;;;14.13;64.25;95288.03;4877373;29;20575;-81
2022/11/02 01:08:13;;;;;;;12.07;7.30;;;;;;;14.12;64.21;95289.00;4877122;29;20189;-83
2022/11/02 01:10:40;;;;;;;13.87;6.93;;;;;;;14.10;64.24;95285.75;4877059;29;20205;-82
2022/11/02 01:13:07;;;;;;;11.70;6.30;;;;;;;14.10;64.25;95295.22;4876732;29;20205;-81
2022/11/02 01:15:36;;;;;;;15.40;7.90;;;;;;;14.05;64.23;95291.31;4876609;29;20240;-80
2022/11/02 01:18:04;;;;;;;14.07;7.13;;;;;;;14.08;64.33;95292.00;4876938;29;20222;-83
2022/11/02 01:20:32;;;;;;;8.20;6.57;;;;;;;13.96;64.38;95283.66;4877544;29;20189;-81
2022/11/02 01:22:59;;;;;;;12.17;6.50;;;;;;;14.04;64.24;95302.56;4876914;29;20595;-81
2022/11/02 01:25:26;;;;;;;17.93;7.07;;;;;;;13.99;64.39;95291.91;4877548;29;20284;-82
2022/11/02 01:27:53;;;;;;;13.37;7.33;;;;;;;13.97;64.54;95291.22;4876594;29;20261;-82
2022/11/02 01:30:20;;;;;;;12.20;6.63;;;;;;;14.01;64.38;95292.56;4877335;29;20205;-81
2022/11/02 01:32:46;;;;;;;10.70;6.83;;;;;;;13.90;64.34;95277.31;4877436;29;20212;-82
2022/11/02 01:35:15;;;;;;;10.60;6.67;;;;;;;13.99;64.38;95283.38;4877912;29;20209;-81
2022/11/02 01:37:43;;;;;;;16.13;7.80;;;;;;;13.98;64.59;95289.47;4877073;29;20224;-82
2022/11/02 01:40:11;;;;;;;9.60;6.53;;;;;;;13.94;64.58;95270.94;4877035;29;20201;-82
2022/11/02 01:42:38;;;;;;;12.33;7.30;;;;;;;13.95;64.77;95280.28;4879582;29;20193;-80
2022/11/02 01:45:06;;;;;;;11.13;6.43;;;;;;;13.94;64.68;95267.56;4881122;29;20200;-81
2022/11/02 01:47:38;;;;;;;11.27;6.97;;;;;;;13.92;64.77;95270.28;4880365;29;20648;-82
2022/11/02 01:50:10;;;;;;;11.63;6.47;;;;;;;13.90;64.77;95259.31;4880894;29;20197;-82
2022/11/02 01:52:38;;;;;;;9.97;6.13;;;;;;;13.84;64.68;95252.19;4880136;29;20212;-82
2022/11/02 01:55:12;;;;;;;10.27;6.87;;;;;;;13.87;64.81;95266.53;4880922;29;20621;-81
2022/11/02 01:57:41;;;;;;;16.50;7.50;;;;;;;13.86;64.83;95263.16;4879770;29;20693;-82
2022/11/02 02:00:10;;;;;;;13.00;6.67;;;;;;;13.76;65.01;95252.09;4880138;29;20201;-81
2022/11/02 02:02:44;;;;;;;10.70;6.57;;;;;;;13.74;64.91;95248.88;4880389;29;20190;-81
2022/11/02 02:05:12;;;;;;;9.40;6.47;;;;;;;13.82;64.87;95261.81;4879721;29;20208;-82
2022/11/02 02:07:40;;;;;;;11.73;5.93;;;;;;;13.73;65.00;95253.22;4880236;29;20196;-83
2022/11/02 02:10:09;;;;;;;10.30;6.10;;;;;;;13.80;65.08;95259.38;4880027;29;20277;-83
2022/11/02 02:12:39;;;;;;;9.27;6.03;;;;;;;13.78;64.88;95263.88;4879600;29;20197;-81
2022/11/02 02:15:07;;;;;;;9.23;6.27;;;;;;;13.66;65.10;95241.88;4879554;29;20231;-81
2022/11/02 02:17:41;;;;;;;9.23;6.10;;;;;;;13.72;64.98;95253.34;4879384;29;20193;-82
2022/11/02 02:20:16;;;;;;;10.03;5.63;;;;;;;13.74;65.13;95256.59;4880121;29;20706;-81
2022/11/02 02:23:21;;;;;;;13.73;6.57;;;;;;;13.74;65.18;95259.16;4879490;29;20189;-81
2022/11/02 02:26:11;;;;;;;15.10;5.73;;;;;;;13.72;65.25;95259.28;4879111;29;20653;-82
2022/11/02 02:28:45;;;;;;;11.30;6.30;;;;;;;13.69;65.24;95251.88;4879132;29;20914;-80
2022/11/02 02:31:17;;;;;;;10.27;5.60;;;;;;;13.68;65.20;95252.81;4879319;29;20197;-81
2022/11/02 02:33:52;;;;;;;14.47;5.53;;;;;;;13.64;65.27;95246.34;4879702;29;20200;-82
2022/11/02 02:36:24;;;;;;;9.43;5.37;;;;;;;13.63;65.22;95247.28;4879521;29;20193;-81
2022/11/02 02:39:01;;;;;;;8.40;6.03;;;;;;;13.53;65.35;95236.25;4879317;29;20204;-80
2022/11/02 02:41:36;;;;;;;10.67;6.63;;;;;;;13.51;65.53;95236.41;4878841;29;20299;-81
2022/11/02 02:44:10;;;;;;;9.43;6.00;;;;;;;13.49;65.47;95235.72;4879218;29;20236;-81
2022/11/02 02:46:43;;;;;;;10.23;6.23;;;;;;;13.60;65.55;95251.91;4879238;29;20241;-81
2022/11/02 02:49:13;;;;;;;9.67;5.73;;;;;;;13.60;65.31;95259.59;4879149;29;20848;-83
2022/11/02 02:51:42;;;;;;;12.93;5.73;;;;;;;13.59;65.47;95252.84;4879577;29;20209;-82
2022/11/02 02:54:13;;;;;;;12.70;5.47;;;;;;;13.56;65.58;95256.53;4886411;29;20633;-79
2022/11/02 02:56:44;;;;;;;11.07;5.60;;;;;;;13.56;65.57;95259.09;4883098;29;20664;-81
2022/11/02 02:59:20;;;;;;;10.07;5.60;;;;;;;13.54;65.54;95256.66;4879366;29;20201;-81
2022/11/02 03:01:48;;;;;;;7.23;5.40;;;;;;;13.44;65.44;95242.25;4879528;29;20279;-83
2022/11/02 03:04:15;;;;;;;8.40;5.20;;;;;;;13.53;65.54;95254.25;4879403;29;20739;-83
2022/11/02 03:06:45;;;;;;;10.20;5.20;;;;;;;13.42;65.47;95241.56;4878976;29;20253;-81
2022/11/02 03:09:19;;;;;;;8.93;5.27;;;;;;;13.50;65.57;95263.03;4880050;29;20201;-81
2022/11/02 03:11:56;;;;;;;9.47;5.00;;;;;;;13.47;65.82;95260.78;4894404;29;20204;-80
2022/11/02 03:14:37;;;;;;;10.60;5.80;;;;;;;13.46;65.82;95263.47;4896892;29;20211;-80
2022/11/02 03:17:15;;;;;;;8.57;5.27;;;;;;;13.45;65.77;95269.56;4897020;29;20228;-83
2022/11/02 03:19:51;;;;;;;10.07;5.53;;;;;;;13.38;65.85;95253.06;4897467;29;20263;-81
2022/11/02 03:22:29;;;;;;;7.80;5.17;;;;;;;13.22;66.04;95239.09;4886760;29;20196;-83
2022/11/02 03:25:04;;;;;;;9.07;5.03;;;;;;;13.37;65.94;95259.97;4879848;29;20224;-83
2022/11/02 03:27:39;;;;;;;11.87;6.20;;;;;;;13.41;66.05;95271.59;4879016;29;20197;-81
2022/11/02 03:30:13;;;;;;;9.27;5.50;;;;;;;13.42;65.90;95268.06;4878701;29;20201;-80
2022/11/02 03:32:46;;;;;;;10.50;5.00;;;;;;;13.38;65.82;95263.34;4879083;29;20260;-81
2022/11/02 03:35:19;;;;;;;7.03;5.13;;;;;;;13.40;65.80;95264.03;4878620;29;20204;-81
2022/11/02 03:37:52;;;;;;;9.10;5.70;;;;;;;13.38;65.98;95266.72;4879070;29;20193;-83
2022/11/02 03:40:24;;;;;;;8.87;5.53;;;;;;;13.37;66.12;95264.31;4879259;29;20197;-82
2022/11/02 03:42:53;;;;;;;10.53;5.03;;;;;;;13.37;66.00;95259.16;4880807;29;20289;-81
2022/11/02 03:45:25;;;;;;;10.40;5.43;;;;;;;13.34;66.03;95260.25;4880924;29;20233;-81
2022/11/02 03:47:58;;;;;;;9.13;5.47;;;;;;;13.33;66.13;95256.06;4898081;29;20189;-81
2022/11/02 03:50:26;;;;;;;17.73;6.27;;;;;;;13.28;66.25;95255.69;4900527;29;20190;-81
2022/11/02 03:52:57;;;;;;;8.30;4.90;;;;;;;13.32;66.28;95257.03;4884500;29;20261;-82
2022/11/02 03:55:31;;;;;;;11.10;5.80;;;;;;;13.30;66.33;95258.94;4879396;29;20193;-80
2022/11/02 03:57:59;;;;;;;8.80;5.50;;;;;;;13.27;66.36;95256.63;4878453;29;20193;-80
2022/11/02 04:00:32;;;;;;;8.50;5.83;;;;;;;13.29;66.20;95257.28;4878459;29;20297;-81
2022/11/02 04:03:02;;;;;;;13.63;6.17;;;;;;;13.20;66.34;95238.38;4878825;29;20201;-82
2022/11/02 04:05:31;;;;;;;10.20;6.07;;;;;;;13.27;66.33;95254.06;4888945;29;20216;-82
2022/11/02 04:16:09;;;;;;;11.00;6.03;;;;;;;13.22;66.39;95259.63;4892168;29;20263;-82
2022/11/02 04:21:20;;;;;;;8.83;5.97;;;;;;;13.18;66.56;95260.03;4885565;29;20208;-80
2022/11/02 04:26:31;;;;;;;11.87;6.37;;;;;;;13.18;66.50;95270.28;4887370;29;20204;-81
2022/11/02 04:28:58;;;;;;;14.40;6.33;;;;;;;13.04;66.54;95245.88;4888478;29;20593;-80
2022/11/02 04:31:26;;;;;;;11.00;5.87;;;;;;;13.16;66.62;95267.03;4880264;29;20649;-82
2022/11/02 04:33:52;;;;;;;12.07;5.93;;;;;;;13.16;66.65;95269.59;4886442;29;20197;-81
2022/11/02 04:36:19;;;;;;;14.43;6.07;;;;;;;13.15;66.53;95265.44;4872166;29;20259;-81
2022/11/02 04:38:45;;;;;;;10.57;5.83;;;;;;;13.15;66.54;95262.84;4880935;29;20189;-80
2022/11/02 04:44:00;;;;;;;9.00;6.73;;;;;;;13.12;66.77;95263.94;4879753;29;20330;-81
2022/11/02 04:46:31;;;;;;;11.40;7.17;;;;;;;13.12;66.72;95261.38;4878351;29;20207;-82
2022/11/02 04:48:58;;;;;;;13.00;6.27;;;;;;;13.07;66.79;95254.09;4878350;29;20242;-79
2022/11/02 04:51:26;;;;;;;10.40;6.50;;;;;;;13.12;66.84;95255.41;4887712;29;20271;-81
2022/11/02 04:53:54;;;;;;;12.20;6.10;;;;;;;13.10;66.66;95255.56;4886096;29;20212;-80
2022/11/02 04:56:22;;;;;;;9.87;6.30;;;;;;;13.10;66.76;95263.28;4882501;29;20205;-81
2022/11/02 04:58:49;;;;;;;13.73;7.30;;;;;;;13.04;66.77;95244.09;4886153;29;20411;-86
2022/11/02 05:01:23;;;;;;;13.10;6.73;;;;;;;13.09;66.72;95263.44;4895538;29;20230;-86
2022/11/02 05:03:53;;;;;;;14.63;6.87;;;;;;;13.00;66.81;95252.22;4892641;29;20543;-88
2022/11/02 05:06:54;;;;;;;10.90;7.00;;;;;;;13.07;67.04;95269.47;4904481;29;20196;-87
2022/11/02 05:09:22;;;;;;;10.47;6.67;;;;;;;12.86;66.95;95234.66;4909961;29;20218;-88
2022/11/02 05:11:48;;;;;;;13.93;6.87;;;;;;;13.08;67.08;95272.84;4906733;29;20291;-89
2022/11/02 05:14:15;;;;;;;12.50;7.10;;;;;;;12.86;66.94;95230.34;4901639;29;20189;-87
2022/11/02 05:16:42;;;;;;;21.33;6.27;;;;;;;13.43;96.74;95263.75;4897036;29;20223;-88
2022/11/02 05:19:11;;;;;;;14.23;7.57;;;;;;;13.91;100.00;95271.25;4897498;29;20192;-87
2022/11/02 05:21:38;;;;;;;25.47;8.33;;;;;;;14.19;100.00;95276.34;4882726;29;20677;-82
2022/11/02 05:24:05;;;;;;;18.10;7.57;;;;;;;14.29;96.93;95282.22;4877704;29;20320;-84
2022/11/02 05:26:33;;;;;;;17.57;6.93;;;;;;;14.31;92.32;95282.91;4877501;29;20332;-84
2022/11/02 05:28:59;;;;;;;14.90;7.17;;;;;;;14.33;88.79;95291.28;4877338;29;20207;-86
2022/11/02 05:31:26;;;;;;;17.93;7.40;;;;;;;14.32;86.11;95295.63;4877331;29;20196;-84
2022/11/02 05:33:53;;;;;;;19.07;7.80;;;;;;;14.32;84.33;95294.81;4877632;29;20208;-83
2022/11/02 05:36:22;;;;;;;14.07;6.77;;;;;;;14.28;82.94;95290.91;4877065;29;20189;-83
2022/11/02 05:38:52;;;;;;;13.70;7.93;;;;;;;14.02;81.64;95250.47;4878216;29;20204;-84
2022/11/02 05:41:19;;;;;;;19.03;7.20;;;;;;;14.30;81.13;95302.69;4876697;29;20193;-84
2022/11/02 05:43:46;;;;;;;19.80;8.57;;;;;;;14.27;80.59;95292.69;4877696;29;20193;-84
2022/11/02 05:46:14;;;;;;;16.47;7.53;;;;;;;14.11;80.03;95265.97;4876877;29;20681;-83
2022/11/02 05:48:41;;;;;;;15.77;8.73;;;;;;;14.31;79.59;95298.34;4877001;29;20200;-80
2022/11/02 05:51:09;;;;;;;10.77;7.93;;;;;;;14.27;79.16;95295.25;4877907;29;20208;-81
2022/11/02 05:53:37;;;;;;;13.83;7.67;;;;;;;14.42;78.57;95316.16;4877239;29;20212;-83
2022/11/02 05:56:06;;;;;;;18.30;5.80;;;;;;;14.59;92.64;95313.75;4877029;29;20201;-82
2022/11/02 05:58:34;;;;;;;24.20;7.80;;;;;;;14.96;100.00;95319.56;4877116;29;20200;-82
2022/11/02 06:01:04;;;;;;;13.93;6.97;;;;;;;15.46;100.00;95321.53;4877116;29;20257;-83
2022/11/02 06:03:32;;;;;;;22.63;7.70;;;;;;;15.92;100.00;95316.13;4876033;29;20201;-82
2022/11/02 06:06:00;;;;;;;19.37;7.43;;;;;;;16.26;100.00;95309.16;4878762;29;20324;-88
2022/11/02 06:08:28;;;;;;;21.10;6.73;;;;;;;16.87;100.00;95325.25;4878457;29;20228;-84
2022/11/02 06:10:56;;;;;;;19.70;8.13;;;;;;;17.34;100.00;95319.44;4877492;29;20201;-86
2022/11/02 06:13:23;;;;;;;13.60;6.93;;;;;;;17.90;98.26;95324.66;4879793;29;20610;-85
2022/11/02 06:15:51;;;;;;;14.40;6.90;;;;;;;18.35;95.12;95321.41;4877841;29;20250;-83
2022/11/02 06:18:18;;;;;;;16.43;7.43;;;;;;;18.72;91.10;95318.13;4877356;29;20648;-85
2022/11/02 06:20:45;;;;;;;19.50;7.90;;;;;;;19.13;86.85;95335.97;4876681;29;20197;-83
2022/11/02 06:23:13;;;;;;;14.37;7.77;;;;;;;19.17;83.49;95284.56;4876922;29;20193;-88
2022/11/02 06:25:40;;;;;;;13.27;7.40;;;;;;;19.88;80.64;95340.31;4875548;29;20228;-84
2022/11/02 06:28:08;;;;;;;15.60;7.43;;;;;;;20.26;77.79;95332.41;4878397;29;20197;-83
2022/11/02 06:30:35;;;;;;;22.30;7.83;;;;;;;20.63;75.29;95331.44;4872635;29;20234;-84
2022/11/02 06:33:01;;;;;;;22.33;8.33;;;;;;;20.98;72.49;95331.59;4884998;29;20236;-87
2022/11/02 06:35:30;;;;;;;25.80;7.90;;;;;;;21.26;70.51;95305.63;4883322;29;20196;-86
2022/11/02 06:37:56;;;;;;;16.83;8.13;;;;;;;21.93;68.66;95343.31;4883109;29;20236;-87
2022/11/02 06:40:23;;;;;;;16.27;7.97;;;;;;;22.42;66.82;95345.00;4889469;29;20279;-86
2022/11/02 06:42:55;;;;;;;18.52;8.18;;;;;;;22.79;65.18;95326.22;4891569;29;20208;-90
2022/11/02 06:45:24;;;;;;;17.38;8.38;;;;;;;23.36;63.55;95336.34;4880397;29;20228;-86
2022/11/02 06:47:52;;;;;;;15.10;7.88;;;;;;;23.68;62.29;95314.66;4892518;29;20209;-87
2022/11/02 06:50:19;;;;;;;13.63;7.00;;;;;;;24.26;60.61;95340.81;4893177;29;20404;-85
2022/11/02 06:52:48;;;;;;;16.85;8.52;;;;;;;24.75;59.17;95346.50;4885972;29;20204;-86
2022/11/02 06:55:16;;;;;;;19.52;8.57;;;;;;;25.18;57.86;95338.81;4896791;29;20196;-85
2022/11/02 06:57:44;;;;;;;15.40;8.68;;;;;;;25.60;56.46;95340.88;4892184;29;20211;-87
2022/11/02 07:00:16;;;;;;;24.48;8.15;;;;;;;25.99;54.78;95339.72;4887415;29;20707;-87
2022/11/02 07:02:45;;;;;;;15.68;8.00;;;;;;;26.38;53.99;95332.41;4889477;29;20619;-86
2022/11/02 07:05:12;;;;;;;18.63;8.63;;;;;;;26.73;53.04;95330.81;4893178;29;20224;-88
2022/11/02 07:07:39;;;;;;;16.98;7.85;;;;;;;27.08;51.83;95331.94;4884490;29;20205;-87
2022/11/02 07:10:09;;;;;;;16.05;8.57;;;;;;;27.39;50.61;95329.03;4883580;29;20241;-85
2022/11/02 07:12:38;;;;;;;18.58;9.13;;;;;;;27.69;49.78;95336.03;4894485;29;20279;-85
2022/11/02 07:15:17;;;;;;;20.42;8.75;;;;;;;27.91;48.99;95325.75;4882509;29;20223;-85
2022/11/02 07:17:46;;;;;;;16.25;8.40;;;;;;;28.23;48.21;95334.84;4886949;29;20228;-89
2022/11/02 07:20:13;;;;;;;16.70;8.48;;;;;;;28.37;47.46;95319.63;4889875;29;20173;-85
2022/11/02 07:22:40;;;;;;;16.88;8.45;;;;;;;28.62;46.99;95327.19;4891639;29;20324;-87
2022/11/02 07:25:07;;;;;;;16.42;8.25;;;;;;;28.88;46.22;95336.34;4889710;29;20656;-87
2022/11/02 07:27:38;;;;;;;15.45;8.52;;;;;;;29.01;45.52;95322.13;4890003;29;20197;-86
2022/11/02 07:30:08;;;;;;;17.73;9.25;;;;;;;29.24;44.94;95337.00;4890307;29;20745;-85
2022/11/02 07:32:41;;;;;;;20.80;8.52;;;;;;;29.41;44.53;95335.19;4889912;29;20203;-86
2022/11/02 07:35:12;;;;;;;17.90;8.27;;;;;;;29.46;43.99;95318.66;4885405;29;20261;-87
2022/11/02 07:37:40;;;;;;;17.05;9.40;;;;;;;29.45;43.44;95303.88;4896286;29;20217;-85
2022/11/02 07:40:15;;;;;;;16.33;8.93;;;;;;;29.58;43.10;95300.09;4895838;29;20201;-86
2022/11/02 07:42:45;;;;;;;22.13;9.02;;;;;;;29.68;42.79;95293.16;4898408;29;20228;-85
2022/11/02 07:45:12;;;;;;;15.68;9.45;;;;;;;29.91;42.53;95331.69;4900527;29;20232;-84
2022/11/02 07:47:43;;;;;;;14.25;7.93;;;;;;;29.88;42.86;95329.56;4900519;29;20193;-84
2022/11/02 07:50:15;;;;;;;13.82;8.70;;;;;;;29.68;42.98;95313.47;4899785;29;20220;-83
2022/11/02 07:52:48;;;;;;;23.60;9.35;;;;;;;30.30;42.12;95333.53;4895552;29;20213;-85
2022/11/02 07:55:17;;;;;;;12.95;9.05;;;;;;;30.71;41.02;95317.13;4893707;29;20245;-84
2022/11/02 07:57:53;;;;;;;17.73;9.88;;;;;;;30.41;41.26;95322.88;4892732;29;20194;-86
2022/11/02 08:00:21;;;;;;;21.13;9.25;;;;;;;30.14;41.54;95324.59;4895553;29;20277;-86
2022/11/02 08:02:48;;;;;;;19.02;8.65;;;;;;;30.36;40.59;95316.75;4895822;29;20272;-90
2022/11/02 08:05:17;;;;;;;19.60;9.55;;;;;;;30.22;40.43;95325.03;4902510;29;20216;-86
2022/11/02 08:07:44;;;;;;;20.80;8.82;;;;;;;29.77;40.38;95325.19;4898475;29;20212;-89
2022/11/02 08:10:12;;;;;;;21.35;8.60;;;;;;;29.09;40.95;95289.31;4906834;29;20185;-84
2022/11/02 08:12:39;;;;;;;20.23;9.23;;;;;;;28.79;41.16;95305.38;4908317;29;20204;-87
2022/11/02 08:15:07;;;;;;;23.10;8.65;;;;;;;28.39;41.67;95308.88;4912009;29;20209;-85
2022/11/02 08:17:34;;;;;;;23.00;9.82;;;;;;;27.90;41.82;95290.78;4907658;29;20649;-87
2022/11/02 08:20:01;;;;;;;18.83;8.82;;;;;;;27.66;42.32;95295.22;4904243;29;20188;-86
2022/11/02 08:22:29;;;;;;;16.88;8.38;;;;;;;27.40;42.36;95301.72;4904455;29;20261;-86
2022/11/02 08:24:56;;;;;;;15.32;9.20;;;;;;;26.97;42.62;95281.78;4912838;29;20627;-87
2022/11/02 08:27:23;;;;;;;16.35;8.05;;;;;;;26.67;42.97;95265.28;4913083;29;20196;-86
2022/11/02 08:29:50;;;;;;;19.38;8.35;;;;;;;26.60;43.32;95296.03;4908919;29;20185;-86
2022/11/02 08:32:17;;;;;;;19.25;9.52;;;;;;;26.31;43.19;95282.69;4910995;29;20236;-88
2022/11/02 08:34:44;;;;;;;21.25;9.75;;;;;;;26.13;43.29;95285.34;4905156;29;20221;-84
2022/11/02 08:37:10;;;;;;;17.70;10.05;;;;;;;25.88;43.66;95274.94;4902337;29;20622;-85
2022/11/02 08:39:39;;;;;;;16.80;8.88;;;;;;;25.73;43.90;95291.78;4889111;29;20280;-89
2022/11/02 08:42:06;;;;;;;18.58;9.85;;;;;;;25.38;43.87;95261.88;4890638;29;20205;-88
2022/11/02 08:44:33;;;;;;;18.30;9.00;;;;;;;25.37;44.23;95283.88;4883632;29;20193;-86
2022/11/02 08:47:00;;;;;;;15.40;8.45;;;;;;;25.20;44.15;95276.53;4893431;29;20211;-92
2022/11/02 08:49:27;;;;;;;22.08;9.52;;;;;;;24.85;44.63;95244.00;4898790;29;20203;-84
2022/11/02 08:51:53;;;;;;;17.85;8.98;;;;;;;24.69;44.43;95240.88;4906383;29;20204;-89
2022/11/02 08:54:20;;;;;;;16.58;9.30;;;;;;;24.79;44.80;95274.44;4886377;29;20705;-86
2022/11/02 08:56:49;;;;;;;18.80;9.63;;;;;;;24.67;45.04;95273.50;4884912;29;20207;-84
2022/11/02 08:59:16;;;;;;;24.55;9.98;;;;;;;24.25;44.96;95226.03;4885795;29;20204;-90
2022/11/02 09:01:43;;;;;;;16.38;9.13;;;;;;;24.39;45.19;95253.72;4886631;29;20200;-88
2022/11/02 09:04:10;;;;;;;18.83;10.43;;;;;;;24.38;45.48;95267.81;4887865;29;20231;-90
2022/11/02 09:06:37;;;;;;;17.75;9.45;;;;;;;24.13;45.27;95243.38;4887774;29;20221;-90
2022/11/02 09:09:10;;;;;;;20.65;9.13;;;;;;;24.21;45.53;95264.06;4900486;29;20218;-87
2022/11/02 09:11:37;;;;;;;18.92;10.07;;;;;;;24.14;45.70;95264.09;4875672;29;20205;-90
2022/11/02 09:14:06;;;;;;;17.50;9.48;;;;;;;23.98;45.89;95247.06;4884978;29;20208;-85
2022/11/02 09:16:33;;;;;;;18.08;8.85;;;;;;;23.68;46.05;95210.19;4891156;29;20239;-86
2022/11/02 09:19:00;;;;;;;19.70;9.23;;;;;;;23.95;45.83;95255.31;4891570;29;20196;-88
2022/11/02 09:21:27;;;;;;;19.40;9.57;;;;;;;23.45;45.80;95176.72;4891235;29;20208;-87
2022/11/02 09:23:55;;;;;;;17.75;9.82;;;;;;;23.80;45.97;95240.91;4897803;29;20216;-88
2022/11/02 09:26:24;;;;;;;19.13;10.75;;;;;;;23.79;46.17;95237.47;4891866;29;20228;-90
2022/11/02 09:28:52;;;;;;;16.40;9.38;;;;;;;23.63;46.08;95215.22;4876876;29;20349;-87
2022/11/02 09:31:22;;;;;;;21.40;9.20;;;;;;;23.77;46.09;95239.50;4890956;29;20300;-86
2022/11/02 09:33:59;;;;;;;22.42;10.73;;;;;;;23.64;45.83;95222.03;4887273;29;20216;-91
2022/11/02 09:36:26;;;;;;;17.50;9.82;;;;;;;23.74;46.15;95234.69;4887523;29;20200;-88
2022/11/02 09:38:53;;;;;;;16.00;9.70;;;;;;;23.62;46.41;95218.84;4884945;29;20201;-87
2022/11/02 09:41:29;;;;;;;18.08;10.70;;;;;;;23.53;46.47;95197.38;4884118;29;20216;-89
2022/11/02 09:44:03;;;;;;;15.57;9.35;;;;;;;23.70;46.29;95220.44;4886953;29;20196;-89
2022/11/02 09:46:35;;;;;;;16.80;10.23;;;;;;;23.55;46.03;95191.94;4885440;29;20224;-88
2022/11/02 09:49:07;;;;;;;27.67;10.07;;;;;;;23.71;46.03;95214.22;4886263;29;20203;-92
2022/11/02 09:51:39;;;;;;;20.98;9.23;;;;;;;23.39;46.16;95169.69;4888240;29;20204;-89
2022/11/02 09:54:15;;;;;;;15.05;8.98;;;;;;;23.72;46.09;95216.63;4887852;29;20211;-89
2022/11/02 09:56:45;;;;;;;19.58;9.07;;;;;;;23.53;46.26;95179.09;4893542;29;20212;-91
2022/11/02 09:59:16;;;;;;;15.45;10.02;;;;;;;23.75;46.42;95204.97;4889431;29;20265;-91
2022/11/02 10:01:54;;;;;;;17.23;9.45;;;;;;;23.76;46.34;95190.88;4890917;29;20587;-90
2022/11/02 10:04:51;;;;;;;17.90;9.40;;;;;;;23.72;46.37;95181.88;4898964;29;20189;-89
2022/11/02 10:08:01;;;;;;;22.88;9.98;;;;;;;23.84;46.14;95189.88;4894469;29;20212;-95
2022/11/02 10:10:35;;;;;;;18.13;9.52;;;;;;;23.69;46.15;95156.94;4881679;29;20200;-88
2022/11/02 10:13:18;;;;;;;19.48;9.45;;;;;;;23.86;46.43;95170.34;4892036;29;20665;-88
2022/11/02 10:15:49;;;;;;;16.92;9.13;;;;;;;23.79;46.23;95151.28;4883916;29;20239;-87
2022/11/02 10:18:20;;;;;;;15.35;9.55;;;;;;;23.74;46.10;95143.28;4887116;29;20230;-88
2022/11/02 10:20:51;;;;;;;21.20;10.73;;;;;;;23.97;46.06;95169.69;4879470;29;20201;-88
2022/11/02 10:23:25;;;;;;;19.27;9.90;;;;;;;24.01;46.02;95160.44;4882046;29;20310;-87
2022/11/02 10:25:52;;;;;;;17.52;9.25;;;;;;;23.86;45.89;95131.16;4895412;29;20601;-89
2022/11/02 10:28:26;;;;;;;20.75;10.25;;;;;;;23.86;46.29;95127.75;4893977;29;20668;-86
2022/11/02 10:30:54;;;;;;;16.33;9.85;;;;;;;23.88;45.99;95117.91;4897470;29;20211;-86
2022/11/02 10:33:26;;;;;;;19.60;9.40;;;;;;;24.01;46.11;95136.13;4893665;29;20229;-86
2022/11/02 10:36:07;;;;;;;26.67;10.25;;;;;;;24.23;45.78;95160.91;4887041;29;20216;-86
2022/11/02 10:38:44;;;;;;;19.08;9.80;;;;;;;24.22;45.92;95148.03;4881606;29;20227;-87
2022/11/02 10:41:28;;;;;;;20.85;9.18;;;;;;;24.32;45.80;95155.41;4882735;29;20212;-86
2022/11/02 10:44:06;;;;;;;16.60;9.68;;;;;;;24.35;45.79;95147.94;4892422;29;20204;-87
2022/11/02 10:46:47;;;;;;;19.90;8.95;;;;;;;24.40;45.78;95147.34;4880265;29;20232;-88
2022/11/02 10:49:43;;;;;;;19.13;9.38;;;;;;;24.42;45.33;95138.25;4897455;29;20200;-87
2022/11/02 10:52:14;;;;;;;15.43;8.55;;;;;;;24.19;45.67;95093.56;4901427;29;20204;-87
2022/11/02 10:54:41;;;;;;;16.05;8.07;;;;;;;24.49;45.53;95139.03;4890352;29;20205;-86
2022/11/02 10:57:12;;;;;;;17.40;8.88;;;;;;;24.52;45.54;95128.16;4884087;29;20899;-87
2022/11/02 10:59:39;;;;;;;19.83;9.73;;;;;;;24.36;45.22;95096.47;4879697;29;20193;-86
2022/11/02 11:02:12;;;;;;;16.25;9.18;;;;;;;24.50;45.67;95111.84;4889162;29;20211;-88
2022/11/02 11:04:41;;;;;;;16.67;9.38;;;;;;;24.64;45.24;95120.38;4867672;29;20216;-87
2022/11/02 11:07:15;;;;;;;16.48;8.48;;;;;;;24.68;45.39;95113.72;4877712;29;20263;-87
2022/11/02 11:09:49;;;;;;;16.73;8.48;;;;;;;24.71;45.30;95118.53;4884135;29;20201;-86
2022/11/02 11:12:21;;;;;;;14.32;7.47;;;;;;;24.75;45.42;95111.84;4887079;29;20208;-86
2022/11/02 11:14:51;;;;;;;15.70;8.25;;;;;;;24.50;45.08;95062.16;4887345;29;20224;-87
2022/11/02 11:17:22;;;;;;;18.65;8.45;;;;;;;24.59;45.40;95065.31;4876473;29;20776;-87
2022/11/02 11:19:52;;;;;;;18.30;9.02;;;;;;;24.69;45.42;95072.66;4889157;29;20231;-87
2022/11/02 11:22:29;;;;;;;17.45;9.18;;;;;;;24.88;45.11;95097.84;4886519;29;20200;-86
2022/11/02 11:25:21;;;;;;;14.20;8.02;;;;;;;24.75;45.14;95069.19;4889563;29;20223;-86
2022/11/02 11:27:50;;;;;;;14.98;7.72;;;;;;;24.94;45.29;95088.31;4882034;29;20351;-87
2022/11/02 11:30:25;;;;;;;14.27;7.45;;;;;;;24.98;44.78;95086.88;4891612;29;20222;-87
2022/11/02 11:32:53;;;;;;;10.52;7.53;;;;;;;25.00;44.73;95085.66;4884560;29;20192;-86
2022/11/02 11:35:24;;;;;;;10.02;7.47;;;;;;;25.00;44.72;95074.38;4881626;29;20204;-86
2022/11/02 11:37:54;;;;;;;12.57;7.70;;;;;;;24.90;44.65;95053.13;4894518;29;20709;-85
2022/11/02 11:40:22;;;;;;;15.63;7.30;;;;;;;25.08;44.30;95076.72;4892327;29;20211;-85
2022/11/02 11:42:52;;;;;;;11.57;6.80;;;;;;;24.81;44.15;95033.50;4904286;29;20264;-86
2022/11/02 11:45:25;;;;;;;16.58;7.03;;;;;;;25.13;44.06;95069.03;4899817;29;20218;-91
2022/11/02 11:47:55;;;;;;;14.60;6.82;;;;;;;25.15;43.72;95066.97;4897410;29;20200;-87
2022/11/02 11:50:38;;;;;;;15.57;6.88;;;;;;;25.00;43.70;95038.53;4879095;29;20229;-87
2022/11/02 11:53:19;;;;;;;11.40;6.15;;;;;;;25.11;43.38;95044.06;4891290;29;20197;-88
2022/11/02 11:55:47;;;;;;;12.88;5.93;;;;;;;24.97;43.48;95023.25;4897962;29;20203;-89